Time;durP1;ratioP1;P1;durP2;ratioP2;P2;SDS_P1;SDS_P2;PMS_P1;PMS_P2;Temp;Humidity;BMP_temperature;BMP_pressure;BME280_temperature;BME280_humidity;BME280_pressure;Samples;Min_cycle;Max_cycle;Signal;HPM_P1;HPM_P2
2023/03/24 00:01:08;;;;;;;6.00;2.50;;;;;;;;;;4955314;28;20222;-63
2023/03/24 00:03:35;;;;;;;6.05;2.50;;;;;;;;;;4957322;29;20210;-64
2023/03/24 00:06:01;;;;;;;6.75;2.40;;;;;;;;;;4956209;29;20353;-64
2023/03/24 00:08:29;;;;;;;7.28;2.70;;;;;;;;;;4957430;29;20242;-64
2023/03/24 00:10:56;;;;;;;6.50;2.22;;;;;;;;;;4957113;29;20210;-64
2023/03/24 00:13:22;;;;;;;6.68;2.60;;;;;;;;;;4956007;29;20654;-64
2023/03/24 00:15:47;;;;;;;8.20;3.05;;;;;;;;;;4958150;28;20234;-64
2023/03/24 00:18:12;;;;;;;6.72;2.70;;;;;;;;;;4956529;29;20214;-64
2023/03/24 00:20:40;;;;;;;5.85;3.15;;;;;;;;;;4956310;29;20214;-64
2023/03/24 00:23:05;;;;;;;7.15;2.95;;;;;;;;;;4956702;29;20245;-64
2023/03/24 00:25:36;;;;;;;5.93;2.80;;;;;;;;;;4956919;29;20677;-64
2023/03/24 00:28:02;;;;;;;6.72;2.83;;;;;;;;;;4973188;28;20257;-64
2023/03/24 00:30:27;;;;;;;7.38;2.80;;;;;;;;;;4966270;28;20226;-64
2023/03/24 00:32:52;;;;;;;5.40;2.63;;;;;;;;;;4956625;29;20210;-64
2023/03/24 00:35:17;;;;;;;6.25;2.80;;;;;;;;;;4955456;29;20246;-64
2023/03/24 00:37:43;;;;;;;6.07;2.72;;;;;;;;;;4956803;29;20218;-64
2023/03/24 00:40:11;;;;;;;6.05;2.65;;;;;;;;;;4971472;28;20221;-64
2023/03/24 00:42:37;;;;;;;18.48;17.30;;;;;;;;;;4975349;28;20701;-64
2023/03/24 00:45:02;;;;;;;0.20;0.20;;;;;;;;;;4975389;28;20225;-64
2023/03/24 00:47:28;;;;;;;5.82;2.97;;;;;;;;;;4975988;28;20562;-63
2023/03/24 00:49:56;;;;;;;6.75;3.08;;;;;;;;;;4974911;28;20218;-64
2023/03/24 00:52:22;;;;;;;5.78;3.10;;;;;;;;;;4975473;28;20205;-64
2023/03/24 00:54:48;;;;;;;5.20;2.65;;;;;;;;;;4975040;28;20699;-64
2023/03/24 00:57:14;;;;;;;5.18;3.00;;;;;;;;;;4975162;28;20229;-64
2023/03/24 00:59:41;;;;;;;7.10;3.17;;;;;;;;;;4975676;28;20298;-64
2023/03/24 01:02:10;;;;;;;6.38;2.92;;;;;;;;;;4974179;28;20217;-63
2023/03/24 01:04:36;;;;;;;5.72;2.75;;;;;;;;;;4975414;28;20238;-63
2023/03/24 01:07:02;;;;;;;7.25;3.03;;;;;;;;;;4974964;28;20248;-63
2023/03/24 01:09:27;;;;;;;5.43;3.03;;;;;;;;;;4974550;28;20230;-63
2023/03/24 01:11:52;;;;;;;5.90;2.95;;;;;;;;;;4974872;28;20210;-63
2023/03/24 01:14:18;;;;;;;7.38;3.22;;;;;;;;;;4974410;28;20300;-63
2023/03/24 01:16:43;;;;;;;6.18;3.13;;;;;;;;;;4955007;28;20230;-63
2023/03/24 01:19:09;;;;;;;6.25;2.72;;;;;;;;;;4955460;28;20238;-63
2023/03/24 01:21:35;;;;;;;4.95;2.85;;;;;;;;;;4955949;28;20221;-63
2023/03/24 01:24:02;;;;;;;6.32;3.13;;;;;;;;;;4954746;28;20227;-63
2023/03/24 01:26:27;;;;;;;4.78;2.80;;;;;;;;;;4955795;28;20565;-63
2023/03/24 01:28:52;;;;;;;4.97;2.72;;;;;;;;;;4973801;28;20221;-63
2023/03/24 01:31:17;;;;;;;6.00;2.78;;;;;;;;;;4957103;28;20252;-63
2023/03/24 01:33:43;;;;;;;5.38;2.90;;;;;;;;;;4955690;29;20549;-64
2023/03/24 01:36:08;;;;;;;6.57;2.85;;;;;;;;;;4937863;29;20289;-64
2023/03/24 01:38:34;;;;;;;6.35;3.22;;;;;;;;;;4957844;28;20256;-64
2023/03/24 01:40:59;;;;;;;4.65;2.65;;;;;;;;;;4974795;28;20684;-63
2023/03/24 01:43:26;;;;;;;4.32;2.60;;;;;;;;;;4974338;28;20240;-63
2023/03/24 01:45:55;;;;;;;4.65;2.55;;;;;;;;;;4974084;28;20227;-63
2023/03/24 01:48:20;;;;;;;6.13;2.80;;;;;;;;;;4957059;28;20242;-64
2023/03/24 01:50:48;;;;;;;6.93;2.72;;;;;;;;;;4974514;28;20249;-64
2023/03/24 01:53:14;;;;;;;6.38;2.60;;;;;;;;;;4956374;28;20228;-64
2023/03/24 01:55:39;;;;;;;4.05;2.42;;;;;;;;;;4974606;28;20217;-64
2023/03/24 01:58:06;;;;;;;6.45;2.80;;;;;;;;;;4956081;28;20704;-64
2023/03/24 02:00:31;;;;;;;5.60;2.80;;;;;;;;;;4974610;28;20608;-64
2023/03/24 02:02:58;;;;;;;4.32;2.50;;;;;;;;;;4974366;28;20210;-64
2023/03/24 02:05:25;;;;;;;4.78;2.72;;;;;;;;;;4956030;28;20236;-64
2023/03/24 02:07:52;;;;;;;4.68;2.42;;;;;;;;;;4956990;28;20268;-64
2023/03/24 02:10:17;;;;;;;6.57;2.70;;;;;;;;;;4956883;28;20240;-64
2023/03/24 02:12:44;;;;;;;5.00;2.83;;;;;;;;;;4973485;28;20669;-64
2023/03/24 02:15:09;;;;;;;5.25;2.53;;;;;;;;;;4966462;28;20265;-64
2023/03/24 02:17:40;;;;;;;5.70;2.70;;;;;;;;;;4937853;29;20294;-64
2023/03/24 02:20:09;;;;;;;5.38;2.88;;;;;;;;;;4936426;28;20377;-63
2023/03/24 02:22:42;;;;;;;4.30;2.50;;;;;;;;;;4954325;28;20222;-63
2023/03/24 02:25:20;;;;;;;5.03;2.35;;;;;;;;;;4954453;28;20220;-63
2023/03/24 02:27:57;;;;;;;4.72;2.42;;;;;;;;;;4953890;29;20314;-63
2023/03/24 02:30:32;;;;;;;5.45;2.10;;;;;;;;;;4946134;28;20312;-63
2023/03/24 02:32:58;;;;;;;3.53;1.48;;;;;;;;;;4973919;28;20267;-63
2023/03/24 02:35:24;;;;;;;3.70;1.75;;;;;;;;;;4972502;28;20569;-63
2023/03/24 02:38:04;;;;;;;2.85;1.73;;;;;;;;;;4973890;28;20217;-63
2023/03/24 02:40:32;;;;;;;2.45;1.17;;;;;;;;;;4937352;29;20210;-63
2023/03/24 02:42:59;;;;;;;4.43;2.10;;;;;;;;;;4954553;29;20730;-63
2023/03/24 02:45:30;;;;;;;4.18;2.20;;;;;;;;;;4954062;29;20214;-63
2023/03/24 02:48:01;;;;;;;3.38;1.10;;;;;;;;;;4953796;29;20214;-63
2023/03/24 02:50:29;;;;;;;3.25;1.25;;;;;;;;;;4953946;29;20575;-63
2023/03/24 02:52:59;;;;;;;2.60;1.40;;;;;;;;;;4937292;29;20222;-63
2023/03/24 02:55:30;;;;;;;2.80;1.40;;;;;;;;;;4936138;29;20679;-63
2023/03/24 02:57:58;;;;;;;1.90;1.00;;;;;;;;;;4937318;29;20305;-63
2023/03/24 03:00:31;;;;;;;2.22;0.80;;;;;;;;;;4936845;29;20270;-63
2023/03/24 03:03:01;;;;;;;2.53;1.00;;;;;;;;;;4936451;29;20293;-63
2023/03/24 03:05:33;;;;;;;1.55;0.90;;;;;;;;;;4953980;29;20210;-63
2023/03/24 03:07:59;;;;;;;2.67;1.10;;;;;;;;;;4954070;29;20218;-63
2023/03/24 03:10:27;;;;;;;1.83;1.15;;;;;;;;;;4936152;29;20221;-63
2023/03/24 03:12:53;;;;;;;2.72;1.35;;;;;;;;;;4937004;29;20219;-63
2023/03/24 03:15:20;;;;;;;3.80;1.73;;;;;;;;;;4937245;29;20577;-63
2023/03/24 03:17:47;;;;;;;3.33;1.80;;;;;;;;;;4954162;29;20694;-63
2023/03/24 03:20:15;;;;;;;2.47;1.23;;;;;;;;;;4936537;29;20261;-65
2023/03/24 03:22:42;;;;;;;3.50;1.83;;;;;;;;;;4935953;29;20226;-65
2023/03/24 03:25:08;;;;;;;4.60;2.65;;;;;;;;;;4936659;29;20214;-64
2023/03/24 03:27:37;;;;;;;5.05;2.50;;;;;;;;;;4950641;28;20217;-63
2023/03/24 03:30:05;;;;;;;4.05;1.90;;;;;;;;;;4948860;29;20313;-63
2023/03/24 03:32:33;;;;;;;3.95;1.90;;;;;;;;;;4952614;29;20607;-63
2023/03/24 03:35:06;;;;;;;4.28;1.35;;;;;;;;;;4955950;28;20214;-63
2023/03/24 03:37:33;;;;;;;3.17;1.20;;;;;;;;;;4939459;29;20238;-63
2023/03/24 03:39:59;;;;;;;3.13;1.20;;;;;;;;;;4954719;28;20685;-63
2023/03/24 03:42:24;;;;;;;3.35;1.20;;;;;;;;;;4959351;28;20213;-63
2023/03/24 03:44:50;;;;;;;3.30;1.13;;;;;;;;;;4976433;28;20212;-63
2023/03/24 03:47:15;;;;;;;3.22;1.10;;;;;;;;;;4976599;28;20262;-63
2023/03/24 03:49:40;;;;;;;3.20;1.17;;;;;;;;;;4976895;28;20210;-63
2023/03/24 03:52:06;;;;;;;3.15;1.10;;;;;;;;;;4975269;28;20221;-63
2023/03/24 03:54:31;;;;;;;5.95;1.40;;;;;;;;;;4959770;28;20260;-63
2023/03/24 03:56:57;;;;;;;3.22;1.00;;;;;;;;;;4959630;28;20707;-63
2023/03/24 03:59:23;;;;;;;4.78;1.10;;;;;;;;;;4958262;28;20214;-63
2023/03/24 04:01:48;;;;;;;3.78;0.90;;;;;;;;;;4976785;28;20213;-63
2023/03/24 04:04:19;;;;;;;3.50;0.88;;;;;;;;;;4958964;28;20343;-63
2023/03/24 04:06:52;;;;;;;1.63;1.20;;;;;;;;;;4975652;28;20304;-63
2023/03/24 04:09:24;;;;;;;2.58;1.00;;;;;;;;;;4943489;28;20300;-63
2023/03/24 04:11:56;;;;;;;3.40;1.00;;;;;;;;;;4947418;28;20670;-63
2023/03/24 04:14:27;;;;;;;4.13;0.98;;;;;;;;;;4965605;28;20245;-63
2023/03/24 04:16:56;;;;;;;4.78;1.33;;;;;;;;;;4941899;28;20226;-63
2023/03/24 04:19:32;;;;;;;8.60;1.40;;;;;;;;;;4939972;28;20213;-63
2023/03/24 04:22:03;;;;;;;6.13;1.27;;;;;;;;;;4939743;28;20312;-63
2023/03/24 04:24:34;;;;;;;1.02;0.90;;;;;;;;;;4963290;28;20268;-63
2023/03/24 04:27:05;;;;;;;6.53;1.27;;;;;;;;;;4955392;28;20654;-63
2023/03/24 04:29:41;;;;;;;6.72;1.45;;;;;;;;;;4961974;28;20693;-63
2023/03/24 04:32:07;;;;;;;5.82;1.42;;;;;;;;;;4963363;28;20226;-63
2023/03/24 04:34:32;;;;;;;6.70;1.77;;;;;;;;;;4963754;28;20308;-63
2023/03/24 04:37:03;;;;;;;6.05;1.23;;;;;;;;;;4963901;28;20329;-63
2023/03/24 04:39:28;;;;;;;8.52;1.70;;;;;;;;;;4948836;28;20301;-63
2023/03/24 04:41:55;;;;;;;7.80;1.92;;;;;;;;;;4953145;28;20220;-63
2023/03/24 04:44:20;;;;;;;10.82;2.08;;;;;;;;;;4937157;28;21743;-63
2023/03/24 04:46:46;;;;;;;7.47;1.80;;;;;;;;;;4942056;28;20700;-63
2023/03/24 04:49:11;;;;;;;9.23;1.85;;;;;;;;;;4927482;28;20640;-63
2023/03/24 04:51:37;;;;;;;8.98;1.88;;;;;;;;;;4944767;28;20521;-63
2023/03/24 04:54:02;;;;;;;14.73;2.10;;;;;;;;;;4943614;28;20203;-63
2023/03/24 04:56:30;;;;;;;11.88;2.58;;;;;;;;;;4944658;28;20230;-63
2023/03/24 04:58:55;;;;;;;14.45;2.47;;;;;;;;;;4963384;28;20234;-63
2023/03/24 05:01:21;;;;;;;14.95;2.65;;;;;;;;;;4959764;28;20238;-63
2023/03/24 05:03:46;;;;;;;9.38;2.42;;;;;;;;;;4956531;28;20554;-63
2023/03/24 05:06:12;;;;;;;10.73;2.25;;;;;;;;;;4955976;28;20241;-63
2023/03/24 05:08:37;;;;;;;12.25;2.33;;;;;;;;;;4958146;28;20564;-63
2023/03/24 05:11:02;;;;;;;19.05;3.20;;;;;;;;;;4963135;28;20284;-63
2023/03/24 05:13:28;;;;;;;13.40;3.03;;;;;;;;;;4963539;28;20657;-63
2023/03/24 05:15:53;;;;;;;15.25;3.20;;;;;;;;;;4950416;28;20234;-63
2023/03/24 05:18:19;;;;;;;13.98;2.80;;;;;;;;;;4944029;28;20221;-63
2023/03/24 05:20:44;;;;;;;13.50;3.17;;;;;;;;;;4944540;28;20222;-63
2023/03/24 05:23:09;;;;;;;12.13;2.50;;;;;;;;;;4942598;28;20210;-63
2023/03/24 05:25:35;;;;;;;16.00;3.30;;;;;;;;;;4937257;28;20225;-63
2023/03/24 05:28:00;;;;;;;15.77;2.90;;;;;;;;;;4936955;28;20309;-63
2023/03/24 05:30:25;;;;;;;14.48;2.88;;;;;;;;;;4936069;28;20234;-63
2023/03/24 05:32:50;;;;;;;16.30;3.25;;;;;;;;;;4944292;28;20218;-63
2023/03/24 05:35:16;;;;;;;15.57;3.30;;;;;;;;;;4943805;28;20253;-63
2023/03/24 05:37:41;;;;;;;13.10;3.03;;;;;;;;;;4943669;28;20729;-63
2023/03/24 05:40:07;;;;;;;16.75;3.42;;;;;;;;;;4943308;28;20269;-63
2023/03/24 05:42:32;;;;;;;19.02;3.42;;;;;;;;;;4962863;28;20300;-63
2023/03/24 05:44:57;;;;;;;16.08;3.42;;;;;;;;;;4962181;28;20557;-63
2023/03/24 05:47:22;;;;;;;17.30;3.70;;;;;;;;;;4957534;28;20218;-63
2023/03/24 05:49:49;;;;;;;19.50;4.05;;;;;;;;;;4955176;28;20245;-63
2023/03/24 05:52:15;;;;;;;17.45;3.78;;;;;;;;;;4954253;28;20213;-63
2023/03/24 05:54:40;;;;;;;14.82;3.60;;;;;;;;;;4960672;28;20210;-63
2023/03/24 05:57:07;;;;;;;16.83;3.22;;;;;;;;;;4961384;28;20214;-63
2023/03/24 05:59:32;;;;;;;18.58;3.70;;;;;;;;;;4962917;28;20677;-64
2023/03/24 06:01:58;;;;;;;17.92;4.28;;;;;;;;;;4962386;28;20252;-64
2023/03/24 06:04:23;;;;;;;15.60;4.07;;;;;;;;;;4942841;28;20757;-64
2023/03/24 06:06:48;;;;;;;15.05;3.58;;;;;;;;;;4943760;28;20701;-64
2023/03/24 06:09:15;;;;;;;13.85;3.45;;;;;;;;;;4939665;28;20252;-64
2023/03/24 06:11:41;;;;;;;16.52;4.15;;;;;;;;;;4949707;28;20307;-64
2023/03/24 06:14:07;;;;;;;17.23;3.90;;;;;;;;;;4954416;28;20218;-64
2023/03/24 06:16:37;;;;;;;15.25;3.95;;;;;;;;;;4940995;28;20222;-64
2023/03/24 06:19:02;;;;;;;19.73;4.32;;;;;;;;;;4942308;28;20729;-64
2023/03/24 06:21:29;;;;;;;19.45;3.63;;;;;;;;;;4943192;28;20229;-64
2023/03/24 06:23:56;;;;;;;18.05;4.05;;;;;;;;;;4943325;28;20566;-64
2023/03/24 06:26:21;;;;;;;18.30;4.50;;;;;;;;;;4942018;28;20218;-64
2023/03/24 06:28:50;;;;;;;16.50;4.10;;;;;;;;;;4943249;28;20217;-64
2023/03/24 06:31:18;;;;;;;21.27;4.57;;;;;;;;;;4941117;28;20626;-64
2023/03/24 06:33:44;;;;;;;15.02;3.90;;;;;;;;;;4935513;28;20207;-64
2023/03/24 06:36:10;;;;;;;15.60;3.75;;;;;;;;;;4935343;28;20237;-64
2023/03/24 06:38:35;;;;;;;15.70;4.28;;;;;;;;;;4936818;28;20210;-64
2023/03/24 06:41:01;;;;;;;16.08;3.80;;;;;;;;;;4941654;28;20214;-63
2023/03/24 06:43:26;;;;;;;15.43;4.13;;;;;;;;;;4925877;28;20317;-64
2023/03/24 06:45:51;;;;;;;13.70;3.65;;;;;;;;;;4943356;28;20661;-64
2023/03/24 06:48:17;;;;;;;13.00;3.08;;;;;;;;;;4942054;28;20682;-64
2023/03/24 06:50:42;;;;;;;12.43;2.83;;;;;;;;;;4943210;28;20218;-64
2023/03/24 06:53:07;;;;;;;16.20;3.63;;;;;;;;;;4961345;28;20210;-64
2023/03/24 06:55:32;;;;;;;12.43;3.40;;;;;;;;;;4955395;28;20241;-64
2023/03/24 06:57:58;;;;;;;13.43;3.75;;;;;;;;;;4954393;28;20531;-64
2023/03/24 07:00:24;;;;;;;12.27;3.35;;;;;;;;;;4953257;28;20225;-64
2023/03/24 07:02:51;;;;;;;13.32;2.92;;;;;;;;;;4961004;28;20244;-63
2023/03/24 07:05:16;;;;;;;15.07;3.17;;;;;;;;;;4960611;28;20240;-64
2023/03/24 07:07:41;;;;;;;13.73;4.07;;;;;;;;;;4940939;28;20977;-66
2023/03/24 07:10:07;;;;;;;15.37;3.97;;;;;;;;;;4956126;28;20422;-66
2023/03/24 07:12:33;;;;;;;16.23;3.58;;;;;;;;;;4961360;28;20217;-67
2023/03/24 07:14:59;;;;;;;12.88;3.33;;;;;;;;;;4942133;28;20214;-67
2023/03/24 07:17:24;;;;;;;15.82;3.72;;;;;;;;;;4938845;28;20281;-66
2023/03/24 07:19:49;;;;;;;13.60;3.75;;;;;;;;;;4935554;28;20419;-67
2023/03/24 07:22:15;;;;;;;11.63;3.20;;;;;;;;;;4952814;28;21038;-66
2023/03/24 07:24:40;;;;;;;18.67;3.45;;;;;;;;;;4957868;28;20202;-66
2023/03/24 07:27:06;;;;;;;10.57;3.05;;;;;;;;;;4951277;28;20211;-66
2023/03/24 07:29:31;;;;;;;13.88;3.03;;;;;;;;;;4942650;28;20254;-67
2023/03/24 07:31:59;;;;;;;13.98;3.40;;;;;;;;;;4942911;28;20267;-68
2023/03/24 07:34:25;;;;;;;14.85;3.17;;;;;;;;;;4942143;28;20732;-68
2023/03/24 07:36:51;;;;;;;13.07;3.58;;;;;;;;;;4942047;28;20230;-67
2023/03/24 07:39:16;;;;;;;53.42;21.00;;;;;;;;;;4942245;28;20214;-69
2023/03/24 07:41:41;;;;;;;48.65;18.30;;;;;;;;;;4955725;28;20214;-65
2023/03/24 07:44:07;;;;;;;17.60;5.27;;;;;;;;;;4934916;28;20502;-65
2023/03/24 07:46:32;;;;;;;14.52;3.78;;;;;;;;;;4937294;28;20241;-65
2023/03/24 07:48:58;;;;;;;15.27;4.22;;;;;;;;;;4944631;28;20414;-65
2023/03/24 07:51:23;;;;;;;15.07;4.50;;;;;;;;;;4943250;28;20776;-65
2023/03/24 07:53:48;;;;;;;17.73;3.92;;;;;;;;;;4944065;28;20210;-65
2023/03/24 07:56:14;;;;;;;14.82;3.55;;;;;;;;;;4944019;28;20301;-65
2023/03/24 07:58:40;;;;;;;13.43;3.50;;;;;;;;;;4943680;28;20221;-65
2023/03/24 08:01:06;;;;;;;14.60;3.70;;;;;;;;;;4947383;28;20213;-65
2023/03/24 08:03:32;;;;;;;17.38;3.45;;;;;;;;;;4960844;28;20210;-65
2023/03/24 08:05:58;;;;;;;12.65;3.40;;;;;;;;;;4962883;28;20678;-65
2023/03/24 08:08:24;;;;;;;13.02;3.80;;;;;;;;;;4961969;28;20210;-65
2023/03/24 08:10:49;;;;;;;12.13;2.95;;;;;;;;;;4944673;28;20692;-65
2023/03/24 08:13:15;;;;;;;14.48;2.85;;;;;;;;;;4966017;28;20700;-64
2023/03/24 08:15:40;;;;;;;15.18;3.88;;;;;;;;;;4971528;28;20206;-66
2023/03/24 08:18:05;;;;;;;16.67;3.15;;;;;;;;;;4971833;28;20222;-64
2023/03/24 08:20:31;;;;;;;13.90;2.42;;;;;;;;;;4972849;28;20632;-65
2023/03/24 08:22:56;;;;;;;14.38;2.70;;;;;;;;;;4976007;28;20748;-66
2023/03/24 08:25:22;;;;;;;10.27;2.38;;;;;;;;;;4975354;28;20214;-65
2023/03/24 08:27:47;;;;;;;16.58;2.85;;;;;;;;;;4976029;28;20300;-64
2023/03/24 08:30:14;;;;;;;10.38;1.85;;;;;;;;;;4968019;28;20297;-64
2023/03/24 08:32:46;;;;;;;11.88;2.10;;;;;;;;;;4956148;29;20261;-66
2023/03/24 08:35:13;;;;;;;10.73;2.13;;;;;;;;;;4961728;28;20217;-65
2023/03/24 08:37:39;;;;;;;11.05;1.85;;;;;;;;;;4972776;28;20234;-65
2023/03/24 08:40:04;;;;;;;10.25;1.58;;;;;;;;;;4960155;28;20265;-65
2023/03/24 08:42:29;;;;;;;10.13;3.33;;;;;;;;;;4956539;29;20211;-65
2023/03/24 08:44:55;;;;;;;11.48;2.47;;;;;;;;;;4956699;29;20217;-65
2023/03/24 08:47:20;;;;;;;5.82;2.28;;;;;;;;;;4955662;29;20666;-65
2023/03/24 08:49:45;;;;;;;6.28;2.22;;;;;;;;;;4956719;29;20241;-65
2023/03/24 08:52:11;;;;;;;9.77;2.67;;;;;;;;;;4956119;29;20293;-65
2023/03/24 08:54:36;;;;;;;15.52;3.00;;;;;;;;;;4955920;29;20229;-65
2023/03/24 08:57:01;;;;;;;10.23;3.58;;;;;;;;;;4955830;29;20572;-63
2023/03/24 08:59:26;;;;;;;25.27;3.30;;;;;;;;;;4956593;29;20225;-64
2023/03/24 09:01:52;;;;;;;11.65;2.45;;;;;;;;;;4960058;28;20287;-65
2023/03/24 09:04:17;;;;;;;4.43;1.75;;;;;;;;;;4974552;28;20214;-63
2023/03/24 09:06:42;;;;;;;5.75;1.80;;;;;;;;;;4960652;28;20215;-62
2023/03/24 09:09:07;;;;;;;7.88;2.33;;;;;;;;;;4961489;28;20222;-64
2023/03/24 09:11:33;;;;;;;14.57;3.20;;;;;;;;;;4975396;28;20202;-64
2023/03/24 09:13:58;;;;;;;11.13;2.97;;;;;;;;;;4971967;28;20305;-63
2023/03/24 09:16:23;;;;;;;14.38;3.20;;;;;;;;;;4974205;28;20233;-64
2023/03/24 09:18:48;;;;;;;13.32;3.53;;;;;;;;;;4975567;28;20627;-63
2023/03/24 09:21:14;;;;;;;15.43;3.60;;;;;;;;;;4974156;28;20245;-64
2023/03/24 09:23:39;;;;;;;14.60;3.67;;;;;;;;;;4975155;28;20206;-64
2023/03/24 09:26:05;;;;;;;13.82;3.42;;;;;;;;;;4972984;28;20213;-64
2023/03/24 09:28:31;;;;;;;11.00;3.10;;;;;;;;;;4955080;29;20210;-63
2023/03/24 09:30:57;;;;;;;10.77;3.05;;;;;;;;;;4969033;28;20238;-63
2023/03/24 09:33:23;;;;;;;14.52;2.80;;;;;;;;;;4974322;28;20206;-64
2023/03/24 09:35:52;;;;;;;13.55;3.00;;;;;;;;;;4974455;28;20688;-64
2023/03/24 09:38:17;;;;;;;11.05;2.90;;;;;;;;;;4973867;28;20697;-63
2023/03/24 09:40:43;;;;;;;16.00;3.00;;;;;;;;;;4955849;29;20221;-64
2023/03/24 09:43:20;;;;;;;11.90;3.00;;;;;;;;;;4937116;29;20219;-63
2023/03/24 09:45:48;;;;;;;14.23;3.63;;;;;;;;;;4937359;29;20443;-63
2023/03/24 09:48:16;;;;;;;16.65;3.42;;;;;;;;;;4955020;29;20580;-64
2023/03/24 09:50:49;;;;;;;16.08;2.92;;;;;;;;;;4954619;29;20582;-64
2023/03/24 09:53:31;;;;;;;10.82;3.25;;;;;;;;;;4955089;29;20678;-63
2023/03/24 09:55:57;;;;;;;12.25;3.25;;;;;;;;;;4938288;29;20234;-62
2023/03/24 09:58:23;;;;;;;12.30;3.10;;;;;;;;;;4954053;29;20245;-63
2023/03/24 10:00:48;;;;;;;12.73;2.78;;;;;;;;;;4938118;29;20253;-63
2023/03/24 10:03:14;;;;;;;11.55;2.33;;;;;;;;;;4954516;29;20577;-63
2023/03/24 10:05:43;;;;;;;10.68;2.88;;;;;;;;;;4955144;29;20654;-63
2023/03/24 10:08:11;;;;;;;11.98;2.75;;;;;;;;;;4937588;29;20221;-63
2023/03/24 10:10:37;;;;;;;12.60;3.08;;;;;;;;;;4954550;29;20272;-63
2023/03/24 10:13:05;;;;;;;14.68;2.58;;;;;;;;;;4955252;28;20228;-63
2023/03/24 10:15:36;;;;;;;10.25;2.85;;;;;;;;;;4937794;29;20220;-63
2023/03/24 10:18:10;;;;;;;15.32;2.85;;;;;;;;;;4953902;29;20227;-64
2023/03/24 10:20:38;;;;;;;11.18;2.90;;;;;;;;;;4954994;29;20213;-63
2023/03/24 10:23:09;;;;;;;9.73;2.85;;;;;;;;;;4954462;29;20207;-62
2023/03/24 10:25:38;;;;;;;11.15;2.80;;;;;;;;;;4954242;29;20207;-63
2023/03/24 10:28:07;;;;;;;11.27;2.72;;;;;;;;;;4972022;28;20683;-64
2023/03/24 10:30:33;;;;;;;12.23;3.20;;;;;;;;;;4943123;29;20258;-64
2023/03/24 10:32:58;;;;;;;12.30;2.88;;;;;;;;;;4933878;29;20211;-64
2023/03/24 10:35:24;;;;;;;14.20;2.75;;;;;;;;;;4935464;29;20211;-63
2023/03/24 10:37:50;;;;;;;10.98;3.03;;;;;;;;;;4934397;29;20235;-63
2023/03/24 10:40:16;;;;;;;12.38;2.92;;;;;;;;;;4949426;28;20269;-63
2023/03/24 10:42:42;;;;;;;12.25;3.22;;;;;;;;;;4954747;28;20206;-63
2023/03/24 10:45:11;;;;;;;10.68;2.72;;;;;;;;;;4953493;28;20244;-62
2023/03/24 10:47:36;;;;;;;8.93;2.60;;;;;;;;;;4952471;29;20622;-62
2023/03/24 10:50:05;;;;;;;9.68;2.47;;;;;;;;;;4952977;28;20210;-63
2023/03/24 10:52:38;;;;;;;12.15;2.53;;;;;;;;;;4953746;28;20290;-63
2023/03/24 10:55:05;;;;;;;5.10;1.60;;;;;;;;;;4954212;28;20218;-63
2023/03/24 10:57:30;;;;;;;5.50;1.58;;;;;;;;;;4954467;28;20697;-63
2023/03/24 10:59:56;;;;;;;9.68;2.15;;;;;;;;;;4953733;28;20214;-63
2023/03/24 11:02:23;;;;;;;6.25;1.80;;;;;;;;;;4953703;28;20214;-62
2023/03/24 11:04:54;;;;;;;13.68;2.28;;;;;;;;;;4953357;29;20346;-62
2023/03/24 11:07:19;;;;;;;8.45;1.63;;;;;;;;;;4951893;28;20218;-62
2023/03/24 11:09:45;;;;;;;10.48;1.95;;;;;;;;;;4953289;29;20218;-62
2023/03/24 11:12:21;;;;;;;7.38;1.88;;;;;;;;;;4954116;28;20207;-62
2023/03/24 11:14:46;;;;;;;4.15;1.67;;;;;;;;;;4936339;28;20207;-62
2023/03/24 11:17:14;;;;;;;9.63;2.08;;;;;;;;;;4934793;28;20250;-62
2023/03/24 11:19:39;;;;;;;8.95;2.13;;;;;;;;;;4928956;28;20219;-63
2023/03/24 11:22:05;;;;;;;7.68;1.85;;;;;;;;;;4932656;29;20572;-63
2023/03/24 11:24:33;;;;;;;8.02;2.05;;;;;;;;;;4935185;29;20218;-63
2023/03/24 11:27:00;;;;;;;7.15;1.70;;;;;;;;;;4942946;29;20217;-63
2023/03/24 11:29:27;;;;;;;6.47;1.85;;;;;;;;;;4951857;28;20269;-63
2023/03/24 11:31:54;;;;;;;8.55;1.90;;;;;;;;;;4933478;29;20234;-63
2023/03/24 11:34:23;;;;;;;3.90;1.30;;;;;;;;;;4934378;29;20302;-63
2023/03/24 11:36:49;;;;;;;8.02;1.77;;;;;;;;;;4934510;29;20234;-63
2023/03/24 11:39:22;;;;;;;11.02;2.40;;;;;;;;;;4941688;28;20214;-63
2023/03/24 11:42:02;;;;;;;6.25;2.03;;;;;;;;;;4953602;28;20210;-63
2023/03/24 11:44:30;;;;;;;7.13;1.52;;;;;;;;;;4940443;29;20298;-63
2023/03/24 11:46:56;;;;;;;5.75;1.30;;;;;;;;;;4946181;28;20203;-63
2023/03/24 11:49:23;;;;;;;6.00;1.58;;;;;;;;;;4949919;28;20218;-63
2023/03/24 11:51:49;;;;;;;3.83;1.35;;;;;;;;;;4948406;29;20206;-63
2023/03/24 11:54:15;;;;;;;3.33;1.08;;;;;;;;;;4952587;28;20307;-63
2023/03/24 11:56:43;;;;;;;2.83;0.63;;;;;;;;;;4954950;28;20317;-63
2023/03/24 11:59:11;;;;;;;3.55;1.20;;;;;;;;;;4957283;28;20217;-63
2023/03/24 12:01:37;;;;;;;5.97;1.27;;;;;;;;;;4957518;28;20242;-63
2023/03/24 12:04:12;;;;;;;5.18;1.20;;;;;;;;;;4953548;28;20621;-63
2023/03/24 12:06:50;;;;;;;4.55;1.30;;;;;;;;;;4957666;28;20612;-63
2023/03/24 12:09:18;;;;;;;8.98;1.60;;;;;;;;;;4957166;28;20222;-63
2023/03/24 12:11:45;;;;;;;6.75;1.58;;;;;;;;;;4956558;28;20210;-63
2023/03/24 12:14:10;;;;;;;7.18;1.50;;;;;;;;;;4941942;28;20215;-63
2023/03/24 12:16:39;;;;;;;6.75;1.50;;;;;;;;;;4937996;29;20309;-63
2023/03/24 12:19:05;;;;;;;8.43;2.10;;;;;;;;;;4936532;29;20290;-63
2023/03/24 12:21:32;;;;;;;13.70;2.80;;;;;;;;;;4938023;29;20302;-63
2023/03/24 12:24:01;;;;;;;11.23;2.50;;;;;;;;;;4937285;29;20262;-64
2023/03/24 12:26:27;;;;;;;12.00;2.63;;;;;;;;;;4942313;28;20206;-64
2023/03/24 12:28:55;;;;;;;8.43;2.60;;;;;;;;;;4957176;28;20729;-65
2023/03/24 12:31:20;;;;;;;12.60;2.97;;;;;;;;;;4937822;29;20326;-66
2023/03/24 12:33:55;;;;;;;11.07;3.17;;;;;;;;;;4954324;28;20293;-64
2023/03/24 12:36:21;;;;;;;11.25;2.90;;;;;;;;;;4956515;28;20297;-64
2023/03/24 12:38:51;;;;;;;7.28;2.40;;;;;;;;;;4951622;28;20701;-64
2023/03/24 12:41:22;;;;;;;8.15;1.83;;;;;;;;;;4937277;29;20218;-63
2023/03/24 12:44:06;;;;;;;7.53;1.83;;;;;;;;;;4936367;29;20211;-63
2023/03/24 12:46:34;;;;;;;7.43;1.80;;;;;;;;;;4936536;29;20211;-63
2023/03/24 12:49:08;;;;;;;5.22;1.40;;;;;;;;;;4937234;29;20309;-63
2023/03/24 12:51:33;;;;;;;6.97;1.65;;;;;;;;;;4935873;29;20261;-63
2023/03/24 12:54:15;;;;;;;7.90;1.60;;;;;;;;;;4935579;29;20227;-63
2023/03/24 12:56:41;;;;;;;4.95;1.67;;;;;;;;;;4937125;29;20223;-63
2023/03/24 12:59:09;;;;;;;6.30;1.48;;;;;;;;;;4935089;29;20302;-63
2023/03/24 13:01:39;;;;;;;6.32;1.35;;;;;;;;;;4936137;29;20207;-63
2023/03/24 13:04:07;;;;;;;6.78;1.50;;;;;;;;;;4936306;29;20242;-63
2023/03/24 13:06:33;;;;;;;6.85;1.40;;;;;;;;;;4934981;29;20212;-63
2023/03/24 13:09:04;;;;;;;5.65;1.42;;;;;;;;;;4935733;29;20275;-63
2023/03/24 13:11:33;;;;;;;6.22;1.50;;;;;;;;;;4935654;29;20234;-63
2023/03/24 13:13:58;;;;;;;6.13;1.80;;;;;;;;;;4935014;29;20219;-63
2023/03/24 13:16:23;;;;;;;8.10;1.77;;;;;;;;;;4935217;29;20231;-63
2023/03/24 13:18:49;;;;;;;5.00;1.50;;;;;;;;;;4935491;29;20274;-62
2023/03/24 13:21:15;;;;;;;7.47;1.85;;;;;;;;;;4935535;29;20242;-62
2023/03/24 13:23:48;;;;;;;5.35;1.60;;;;;;;;;;4936952;29;20214;-62
2023/03/24 13:26:13;;;;;;;7.30;1.70;;;;;;;;;;4939264;28;20745;-62
2023/03/24 13:28:44;;;;;;;6.28;2.13;;;;;;;;;;4955374;28;20215;-62
2023/03/24 13:31:09;;;;;;;6.65;1.85;;;;;;;;;;4938865;29;20246;-62
2023/03/24 13:33:35;;;;;;;6.10;1.80;;;;;;;;;;4936258;29;20270;-62
2023/03/24 13:36:11;;;;;;;6.72;2.05;;;;;;;;;;4935792;29;20235;-62
2023/03/24 13:38:37;;;;;;;6.35;2.20;;;;;;;;;;4939534;29;20218;-62
2023/03/24 13:41:03;;;;;;;8.40;2.30;;;;;;;;;;4955312;28;20203;-62
2023/03/24 13:43:28;;;;;;;8.52;2.72;;;;;;;;;;4954918;28;20207;-63
2023/03/24 13:45:58;;;;;;;6.93;2.10;;;;;;;;;;4953756;29;20268;-62
2023/03/24 13:48:31;;;;;;;6.18;1.98;;;;;;;;;;4954256;28;20582;-63
2023/03/24 13:51:02;;;;;;;5.20;1.73;;;;;;;;;;4955423;28;20214;-63
2023/03/24 13:53:32;;;;;;;7.30;1.70;;;;;;;;;;4955333;28;20214;-61
2023/03/24 13:55:59;;;;;;;6.28;2.00;;;;;;;;;;4954626;28;20223;-61
2023/03/24 13:58:27;;;;;;;6.68;2.08;;;;;;;;;;4953957;28;20216;-61
2023/03/24 14:01:08;;;;;;;4.10;1.38;;;;;;;;;;4955374;28;20202;-62
2023/03/24 14:03:36;;;;;;;4.10;1.00;;;;;;;;;;4954007;28;20709;-61
2023/03/24 14:06:03;;;;;;;4.85;1.40;;;;;;;;;;4954710;28;20211;-62
2023/03/24 14:08:33;;;;;;;5.40;1.13;;;;;;;;;;4955202;28;20349;-62
2023/03/24 14:10:59;;;;;;;5.75;1.90;;;;;;;;;;4953212;29;20285;-61
2023/03/24 14:13:34;;;;;;;5.25;2.10;;;;;;;;;;4954068;28;20674;-61
2023/03/24 14:15:59;;;;;;;6.43;2.28;;;;;;;;;;4945550;28;20223;-61
2023/03/24 14:18:25;;;;;;;4.90;2.10;;;;;;;;;;4932780;29;20219;-61
2023/03/24 14:20:56;;;;;;;5.13;2.13;;;;;;;;;;4935297;29;20581;-61
2023/03/24 14:23:23;;;;;;;6.57;1.50;;;;;;;;;;4935275;29;20541;-61
2023/03/24 14:25:53;;;;;;;7.13;1.48;;;;;;;;;;4934004;29;20690;-61
2023/03/24 14:28:18;;;;;;;5.03;1.30;;;;;;;;;;4934260;29;20216;-62
2023/03/24 14:30:57;;;;;;;3.55;1.10;;;;;;;;;;4952026;28;20253;-62
2023/03/24 14:33:23;;;;;;;5.30;1.60;;;;;;;;;;4954854;28;20218;-62
2023/03/24 14:35:50;;;;;;;6.22;1.60;;;;;;;;;;4956552;28;20583;-61
2023/03/24 14:38:17;;;;;;;7.30;1.30;;;;;;;;;;4955523;28;20222;-61